South Channel Island, Victoria

5:04 AM AEST on August 30, 2015 (GMT +1000)
Rosebud West | | Change Station
CLOSE
Current Station
Personal Weather Station
Location: Rosebud West, VICTORIA
Elevation: 23 ft
Nearby Weather Stations

Elev 23 ft 38.37 °S, 144.88 °E | Updated 19 seconds ago

Overcast
Overcast
50.4 °F
Feels Like 50.4 °F
N
1.1
Wind Variable Wind from SSW
Gusts 3.1 mph

Today
High -- | Low -- °F
--% Chance of Precip.
Yesterday
High -- | Low -- °F
Precip. -- in
6:46 AM 5:56 PM
Full, 100% visible
Pressure 30.24 in
Visibility 6.2 miles
Clouds Overcast 3300 ft
Dew Point 42 °F
Humidity 72%
Rainfall 0.00 in
Snow Depth Not available.
UV 0.0 out of 12
Pollen Not available.
Air Quality Not available.
Flu Activity Not available.
METAR YMAV 291900Z AUTO 28008KT 9999 // OVC033 08/07 Q1024
Pressure 30.24 in
Visibility 6.2 miles
Clouds Overcast 3300 ft
Dew Point 42 °F
Humidity 72%
Rainfall 0.00 in
Snow Depth Not available.
UV 0.0 out of 12
Pollen Not available.
Air Quality Not available.
Flu Activity Not available.
METAR YMAV 291900Z AUTO 28008KT 9999 // OVC033 08/07 Q1024

10-Day Weather Forecast

×

Almanac

Astronomy

Aug. 30, 2015 Rise Set
Actual Time
Civil Twilight
Nautical Twilight
Astronomical Twilight
Moon
Length of Visible Light
Length of Day
Tomorrow will be .
, % of the Moon is Illuminated

Today's Extremes

Country Highs Country Lows

Community

WunderPhotos

Upload Photos

1,850,777 photos uploaded!

WunderBlogs® & News

Nearby

Air Quality

  Air Quality AQ Index Pollutant
Not available.

Snow Depth

Station Depth Elevation

Earthquake Activity

City Distance Mag. Time & Date
Minimum magnitude displayed is 2.5.

Coastal Water Temperatures

Place Temperature

Stations

Nearby Weather Stations

Station Location Temp. Windchill Dew Point Humidity Wind Precip. Elev Updated Type